»·PEaware :: BADGR16 KEND-KEND

BADGR16 :: KEND-KEND

FLIGHT INFORMATION

Flight Status: Arrived
Operator: Unknown
More flights by this operator :: More flights under this callsign
Pilot: Nathaniel J. (22219)
Aircraft: BEECH AIRCRAFT T-6A TEXAN
(TEX2)
More flights by this aircraft type
Origin: KEND Vance AFB
United States
Destination: KEND Vance AFB
United States
More flights between these airports :: More routes between these airports
Route: +PNC F22
File this flight plan on PilotEdge
Remarks:
Altitude:
(Current/Filed)
0ft
Speed:
(Current/Filed)
0kts
Departed: 18-Sep-20 08:01 AM
Arrived: 18-Sep-20 08:47 AM
Distance/Time
Traveled:
7nm/0:46
Distance/Time
To Go:
Arrived

Flight Plot

Page will automatically refresh every two minutes.

Flight plan parsing failed; only flown route is shown


Map Options




Map Legend


Flown Route
Filed Route
Departure Airport
Arrival Airport
Navaid (VOR, NDB)
Fix

Horizontal Profiles

Position Reports

Time Latitude Longitude Heading Altitude Ground
Speed
18-Sep-20 07:53 36.346971 -97.909990 217 1279ft 0kts
18-Sep-20 07:54 36.346971 -97.909990 217 1279ft 0kts
18-Sep-20 07:55 36.346971 -97.909990 217 1279ft 0kts
18-Sep-20 07:56 36.346971 -97.909990 217 1279ft 0kts
18-Sep-20 07:57 36.346971 -97.909990 217 1279ft 0kts
18-Sep-20 07:58 36.346971 -97.909990 217 1279ft 0kts
18-Sep-20 07:59 36.346971 -97.909990 217 1279ft 0kts
18-Sep-20 08:00 36.346971 -97.909990 217 1279ft 0kts
18-Sep-20 08:01 36.335350 -97.910854 179 1469ft 135kts
18-Sep-20 08:02 36.291763 -97.908673 179 4407ft 172kts
18-Sep-20 08:03 36.235160 -97.897656 142 4944ft 229kts
18-Sep-20 08:04 36.246805 -97.825544 63 4981ft 225kts
18-Sep-20 08:05 36.285336 -97.763880 30 5751ft 247kts
18-Sep-20 08:06 36.338506 -97.700882 44 5375ft 271kts
18-Sep-20 08:07 36.389345 -97.634770 42 5526ft 263kts
18-Sep-20 08:08 36.442996 -97.572653 41 5498ft 265kts
18-Sep-20 08:09 36.495118 -97.507865 46 5487ft 264kts
18-Sep-20 08:10 36.543273 -97.440110 50 5444ft 265kts
18-Sep-20 08:10 36.579806 -97.378622 52 5502ft 264kts
18-Sep-20 08:11 36.621433 -97.302702 56 5513ft 264kts
18-Sep-20 08:13 36.675319 -97.222218 42 4358ft 245kts
18-Sep-20 08:13 36.712768 -97.168199 54 3395ft 249kts
18-Sep-20 08:15 36.729899 -97.082364 216 2598ft 153kts
18-Sep-20 08:15 36.730409 -97.131425 254 2871ft 179kts
18-Sep-20 08:16 36.737532 -97.114378 358 2513ft 133kts
18-Sep-20 08:17 36.748458 -97.099858 176 1227ft 100kts
18-Sep-20 08:18 36.718482 -97.100054 182 2376ft 144kts
18-Sep-20 08:19 36.734619 -97.112217 1 2348ft 134kts
18-Sep-20 08:20 36.741522 -97.099628 180 1012ft 92kts
18-Sep-20 08:21 36.709939 -97.099063 182 3166ft 147kts
18-Sep-20 08:22 36.657970 -97.100083 197 4567ft 235kts
18-Sep-20 08:23 36.644471 -97.179669 264 4469ft 247kts
18-Sep-20 08:24 36.608140 -97.243088 205 4501ft 264kts
18-Sep-20 08:25 36.538511 -97.275070 186 4488ft 270kts
18-Sep-20 08:26 36.467917 -97.275785 185 3165ft 231kts
18-Sep-20 08:27 36.413548 -97.276917 181 2518ft 118kts
18-Sep-20 08:28 36.384533 -97.277282 178 1152ft 111kts
18-Sep-20 08:29 36.359595 -97.285993 272 4265ft 133kts
18-Sep-20 08:30 36.359230 -97.341407 273 6719ft 201kts
18-Sep-20 08:31 36.361771 -97.413592 272 6624ft 212kts
18-Sep-20 08:32 36.361209 -97.489293 267 6562ft 218kts
18-Sep-20 08:33 36.357945 -97.565465 266 6513ft 222kts
18-Sep-20 08:34 36.352016 -97.643985 270 6058ft 228kts
18-Sep-20 08:35 36.360480 -97.720675 290 6025ft 218kts
18-Sep-20 08:36 36.381789 -97.792153 299 6140ft 211kts
18-Sep-20 08:37 36.441823 -97.807399 355 4609ft 226kts
18-Sep-20 08:38 36.491730 -97.837145 273 2283ft 203kts
18-Sep-20 08:39 36.478586 -97.899249 210 1944ft 188kts
18-Sep-20 08:40 36.435625 -97.906794 181 1783ft 136kts
18-Sep-20 08:41 36.403235 -97.910207 182 1815ft 108kts
18-Sep-20 08:42 36.372675 -97.911050 180 1761ft 108kts
18-Sep-20 08:43 36.342289 -97.910973 180 1293ft 95kts
18-Sep-20 08:46 36.383633 -97.788190 264 1164ft 0kts
18-Sep-20 08:47 36.383633 -97.788190 264 1164ft 0kts
18-Sep-20 08:48 36.383633 -97.788190 264 1164ft 0kts

Navigation Log

Ident Type
Flight plan parsing failed, navigation log unavailable